首页
METAR-TAF:

METAR-TAF

机场 :

佩森, 亞利桑那州, 美国

纬度: 34-15-25N, 经度: 111-20-21W, 海拔: 1572米

当前天气观测

该预报发布于14分钟前的23:35 UTC
风速8节,风向西转西南,有时为15节阵风,在西南西转西北之间变化
温度 34°C
湿度 14%
气压 1021 hPa
能見度: 16.1公里
天空无云

METAR: KPAN 212335Z AUTO 25008G15KT 230V300 10SM CLR 34/03 A3014 RMK AO2

时间: 16:49 (23:49 UTC)


TAF: 丢失

超过4000个机场的气象观测和天气预报(METAR&TAF报告)。

可查询的气象台以黄色和红色小点在地图上表示。

将鼠标移到小点上方,可查看气象台名称。

然后点击查看天气观测和预报。

如需切换地图:点击带黑十字的绿色按钮放大地图;点击带横线的绿色按钮缩小地图;或者点击绿色箭头查看邻近地区的地图。


METAR-TAF: